Royalton, Illinois
Current Conditions -  °F | °C
As of 4:52 PM on Sunday 21 Dec 2014 (Local Time) from KMDH Reporting Station
Overcast Overcast  
Wind Chill: 38°   Ceiling: 5000
Heat Index: 41°   Visibility: 10mi
Dew Point: 30°   Wind: 5mph
Humidity: 65%   Direction: 100°E
Pressure: 30.06"   Gusts: NA
Location:  37.88°N, 89.11°W
Report Text: KMDH 212252Z AUTO 10004KT 10SM OVC050 05/M01 A3006 RMK AO2 SLP181 T00501011
Loading
Personal Weather Stations






























Interactive Weather Map New forecast layout! Learn more

10-Day Weather Forecast

Advertisements
Track Severe Weather on mobile